sensor_id;sensor_type;location;lat;lon;timestamp;P1;durP1;ratioP1;P2;durP2;ratioP2
974;SDS011;6115;49.296;10.602;2023-08-17T00:00:30;5.27;;;4.73;;
974;SDS011;6115;49.296;10.602;2023-08-17T00:05:31;6.40;;;5.00;;
974;SDS011;6115;49.296;10.602;2023-08-17T00:10:33;5.97;;;5.10;;
974;SDS011;6115;49.296;10.602;2023-08-17T00:15:33;5.97;;;4.73;;
974;SDS011;6115;49.296;10.602;2023-08-17T00:20:34;7.20;;;4.77;;
974;SDS011;6115;49.296;10.602;2023-08-17T00:25:34;5.80;;;4.40;;
974;SDS011;6115;49.296;10.602;2023-08-17T00:30:38;4.53;;;4.13;;
974;SDS011;6115;49.296;10.602;2023-08-17T00:35:38;5.10;;;4.60;;
974;SDS011;6115;49.296;10.602;2023-08-17T00:40:39;5.43;;;4.73;;
974;SDS011;6115;49.296;10.602;2023-08-17T00:45:40;4.83;;;4.13;;
974;SDS011;6115;49.296;10.602;2023-08-17T00:50:41;6.53;;;4.10;;
974;SDS011;6115;49.296;10.602;2023-08-17T00:55:43;5.37;;;4.10;;
974;SDS011;6115;49.296;10.602;2023-08-17T01:00:45;6.30;;;4.73;;
974;SDS011;6115;49.296;10.602;2023-08-17T01:05:46;6.00;;;4.93;;
974;SDS011;6115;49.296;10.602;2023-08-17T01:10:55;4.60;;;4.20;;
974;SDS011;6115;49.296;10.602;2023-08-17T01:16:02;6.07;;;3.90;;
974;SDS011;6115;49.296;10.602;2023-08-17T01:21:07;8.10;;;4.63;;
974;SDS011;6115;49.296;10.602;2023-08-17T01:26:10;5.07;;;4.47;;
974;SDS011;6115;49.296;10.602;2023-08-17T01:31:11;5.17;;;4.67;;
974;SDS011;6115;49.296;10.602;2023-08-17T01:36:25;5.23;;;4.73;;
974;SDS011;6115;49.296;10.602;2023-08-17T01:41:31;4.97;;;4.47;;
974;SDS011;6115;49.296;10.602;2023-08-17T01:46:33;9.03;;;5.03;;
974;SDS011;6115;49.296;10.602;2023-08-17T01:51:33;6.20;;;4.70;;
974;SDS011;6115;49.296;10.602;2023-08-17T01:56:34;5.67;;;5.03;;
974;SDS011;6115;49.296;10.602;2023-08-17T02:01:34;7.00;;;4.93;;
974;SDS011;6115;49.296;10.602;2023-08-17T02:06:35;5.13;;;4.63;;
974;SDS011;6115;49.296;10.602;2023-08-17T02:11:35;6.00;;;4.67;;
974;SDS011;6115;49.296;10.602;2023-08-17T02:16:36;5.10;;;4.60;;
974;SDS011;6115;49.296;10.602;2023-08-17T02:21:37;11.77;;;5.50;;
974;SDS011;6115;49.296;10.602;2023-08-17T02:26:37;5.23;;;4.50;;
974;SDS011;6115;49.296;10.602;2023-08-17T02:31:38;5.17;;;4.67;;
974;SDS011;6115;49.296;10.602;2023-08-17T02:36:38;5.33;;;4.50;;
974;SDS011;6115;49.296;10.602;2023-08-17T02:41:39;8.23;;;4.53;;
974;SDS011;6115;49.296;10.602;2023-08-17T02:46:40;5.03;;;4.27;;
974;SDS011;6115;49.296;10.602;2023-08-17T02:51:41;5.23;;;4.70;;
974;SDS011;6115;49.296;10.602;2023-08-17T02:56:41;6.17;;;5.57;;
974;SDS011;6115;49.296;10.602;2023-08-17T03:01:43;5.50;;;4.70;;
974;SDS011;6115;49.296;10.602;2023-08-17T03:06:44;9.80;;;5.17;;
974;SDS011;6115;49.296;10.602;2023-08-17T03:11:44;4.73;;;4.30;;
974;SDS011;6115;49.296;10.602;2023-08-17T03:16:45;6.37;;;5.73;;
974;SDS011;6115;49.296;10.602;2023-08-17T03:21:45;6.20;;;4.87;;
974;SDS011;6115;49.296;10.602;2023-08-17T03:26:46;5.37;;;4.50;;
974;SDS011;6115;49.296;10.602;2023-08-17T03:31:46;5.13;;;4.60;;
974;SDS011;6115;49.296;10.602;2023-08-17T03:36:49;6.10;;;5.10;;
974;SDS011;6115;49.296;10.602;2023-08-17T03:41:50;5.47;;;4.80;;
974;SDS011;6115;49.296;10.602;2023-08-17T03:46:50;5.43;;;4.90;;
974;SDS011;6115;49.296;10.602;2023-08-17T03:51:51;5.50;;;4.17;;
974;SDS011;6115;49.296;10.602;2023-08-17T03:56:52;6.00;;;4.80;;
974;SDS011;6115;49.296;10.602;2023-08-17T04:01:52;6.27;;;5.47;;
974;SDS011;6115;49.296;10.602;2023-08-17T04:06:53;13.33;;;5.43;;
974;SDS011;6115;49.296;10.602;2023-08-17T04:11:54;5.53;;;5.00;;
974;SDS011;6115;49.296;10.602;2023-08-17T04:16:55;5.00;;;4.50;;
974;SDS011;6115;49.296;10.602;2023-08-17T04:21:57;5.17;;;4.67;;
974;SDS011;6115;49.296;10.602;2023-08-17T04:26:58;5.73;;;4.70;;
974;SDS011;6115;49.296;10.602;2023-08-17T04:31:59;5.53;;;4.83;;
974;SDS011;6115;49.296;10.602;2023-08-17T04:36:59;5.40;;;4.90;;
974;SDS011;6115;49.296;10.602;2023-08-17T04:42:00;6.03;;;5.30;;
974;SDS011;6115;49.296;10.602;2023-08-17T04:47:00;6.63;;;5.30;;
974;SDS011;6115;49.296;10.602;2023-08-17T04:52:01;7.23;;;5.20;;
974;SDS011;6115;49.296;10.602;2023-08-17T04:57:02;5.43;;;4.93;;
974;SDS011;6115;49.296;10.602;2023-08-17T05:02:05;8.63;;;6.20;;
974;SDS011;6115;49.296;10.602;2023-08-17T05:07:06;8.70;;;6.17;;
974;SDS011;6115;49.296;10.602;2023-08-17T05:12:06;8.00;;;6.80;;
974;SDS011;6115;49.296;10.602;2023-08-17T05:17:07;17.90;;;7.50;;
974;SDS011;6115;49.296;10.602;2023-08-17T05:22:10;7.63;;;6.07;;
974;SDS011;6115;49.296;10.602;2023-08-17T05:27:11;7.63;;;6.20;;
974;SDS011;6115;49.296;10.602;2023-08-17T05:32:12;8.17;;;6.00;;
974;SDS011;6115;49.296;10.602;2023-08-17T05:37:12;6.33;;;5.70;;
974;SDS011;6115;49.296;10.602;2023-08-17T05:42:14;7.80;;;5.40;;
974;SDS011;6115;49.296;10.602;2023-08-17T05:47:14;9.10;;;5.80;;
974;SDS011;6115;49.296;10.602;2023-08-17T05:52:17;8.33;;;6.17;;
974;SDS011;6115;49.296;10.602;2023-08-17T05:57:18;10.50;;;7.00;;
974;SDS011;6115;49.296;10.602;2023-08-17T06:02:18;9.20;;;6.47;;
974;SDS011;6115;49.296;10.602;2023-08-17T06:07:19;7.60;;;6.00;;
974;SDS011;6115;49.296;10.602;2023-08-17T06:12:19;7.20;;;6.33;;
974;SDS011;6115;49.296;10.602;2023-08-17T06:17:20;7.00;;;6.00;;
974;SDS011;6115;49.296;10.602;2023-08-17T06:22:20;7.83;;;6.40;;
974;SDS011;6115;49.296;10.602;2023-08-17T06:27:21;8.27;;;6.27;;
974;SDS011;6115;49.296;10.602;2023-08-17T06:32:21;9.10;;;7.20;;
974;SDS011;6115;49.296;10.602;2023-08-17T06:37:22;7.40;;;6.13;;
974;SDS011;6115;49.296;10.602;2023-08-17T06:42:23;6.97;;;5.90;;
974;SDS011;6115;49.296;10.602;2023-08-17T06:47:23;6.77;;;6.07;;
974;SDS011;6115;49.296;10.602;2023-08-17T06:52:24;7.70;;;6.13;;
974;SDS011;6115;49.296;10.602;2023-08-17T06:57:25;6.67;;;5.70;;
974;SDS011;6115;49.296;10.602;2023-08-17T07:02:25;7.60;;;6.27;;
974;SDS011;6115;49.296;10.602;2023-08-17T07:07:29;5.90;;;5.27;;
974;SDS011;6115;49.296;10.602;2023-08-17T07:12:31;7.00;;;5.70;;
974;SDS011;6115;49.296;10.602;2023-08-17T07:17:32;6.50;;;5.80;;
974;SDS011;6115;49.296;10.602;2023-08-17T07:22:34;6.83;;;6.07;;
974;SDS011;6115;49.296;10.602;2023-08-17T07:27:35;6.80;;;5.90;;
974;SDS011;6115;49.296;10.602;2023-08-17T07:32:35;5.90;;;5.20;;
974;SDS011;6115;49.296;10.602;2023-08-17T07:37:36;5.77;;;5.10;;
974;SDS011;6115;49.296;10.602;2023-08-17T07:42:36;6.30;;;5.53;;
974;SDS011;6115;49.296;10.602;2023-08-17T07:47:37;7.67;;;5.00;;
974;SDS011;6115;49.296;10.602;2023-08-17T07:52:38;5.60;;;5.10;;
974;SDS011;6115;49.296;10.602;2023-08-17T07:57:38;7.37;;;5.83;;
974;SDS011;6115;49.296;10.602;2023-08-17T08:02:39;5.97;;;4.93;;
974;SDS011;6115;49.296;10.602;2023-08-17T08:07:39;8.70;;;5.60;;
974;SDS011;6115;49.296;10.602;2023-08-17T08:12:40;6.60;;;5.90;;
974;SDS011;6115;49.296;10.602;2023-08-17T08:17:41;5.37;;;4.87;;
974;SDS011;6115;49.296;10.602;2023-08-17T08:22:42;7.63;;;5.10;;
974;SDS011;6115;49.296;10.602;2023-08-17T08:27:42;10.10;;;5.20;;
974;SDS011;6115;49.296;10.602;2023-08-17T08:32:43;6.57;;;5.87;;
974;SDS011;6115;49.296;10.602;2023-08-17T08:37:43;5.60;;;4.80;;
974;SDS011;6115;49.296;10.602;2023-08-17T08:42:44;6.43;;;5.73;;
974;SDS011;6115;49.296;10.602;2023-08-17T08:47:44;5.73;;;4.93;;
974;SDS011;6115;49.296;10.602;2023-08-17T08:52:53;6.63;;;5.50;;
974;SDS011;6115;49.296;10.602;2023-08-17T08:58:04;6.90;;;5.57;;
974;SDS011;6115;49.296;10.602;2023-08-17T09:03:05;5.90;;;5.30;;
974;SDS011;6115;49.296;10.602;2023-08-17T09:08:08;8.20;;;6.10;;
974;SDS011;6115;49.296;10.602;2023-08-17T09:13:12;6.20;;;5.60;;
974;SDS011;6115;49.296;10.602;2023-08-17T09:18:13;5.97;;;5.47;;
974;SDS011;6115;49.296;10.602;2023-08-17T09:23:15;8.10;;;6.00;;
974;SDS011;6115;49.296;10.602;2023-08-17T09:28:17;5.10;;;4.60;;
974;SDS011;6115;49.296;10.602;2023-08-17T09:33:19;5.73;;;5.13;;
974;SDS011;6115;49.296;10.602;2023-08-17T09:38:24;6.03;;;5.43;;
974;SDS011;6115;49.296;10.602;2023-08-17T09:43:25;5.93;;;5.43;;
974;SDS011;6115;49.296;10.602;2023-08-17T09:48:30;7.30;;;5.27;;
974;SDS011;6115;49.296;10.602;2023-08-17T09:53:35;5.57;;;5.00;;
974;SDS011;6115;49.296;10.602;2023-08-17T09:58:38;5.17;;;4.77;;
974;SDS011;6115;49.296;10.602;2023-08-17T10:03:41;4.97;;;4.47;;
974;SDS011;6115;49.296;10.602;2023-08-17T10:08:46;4.63;;;4.23;;
974;SDS011;6115;49.296;10.602;2023-08-17T10:13:51;5.37;;;4.87;;
974;SDS011;6115;49.296;10.602;2023-08-17T10:19:09;5.30;;;4.43;;
974;SDS011;6115;49.296;10.602;2023-08-17T10:24:19;5.00;;;4.60;;
974;SDS011;6115;49.296;10.602;2023-08-17T10:29:21;4.60;;;4.20;;
974;SDS011;6115;49.296;10.602;2023-08-17T10:34:23;5.20;;;4.70;;
974;SDS011;6115;49.296;10.602;2023-08-17T10:39:26;5.17;;;4.63;;
974;SDS011;6115;49.296;10.602;2023-08-17T10:49:39;4.80;;;4.40;;
974;SDS011;6115;49.296;10.602;2023-08-17T10:54:42;7.33;;;4.90;;
974;SDS011;6115;49.296;10.602;2023-08-17T10:59:43;5.70;;;5.20;;
974;SDS011;6115;49.296;10.602;2023-08-17T11:04:50;5.20;;;4.80;;
974;SDS011;6115;49.296;10.602;2023-08-17T11:09:53;4.80;;;4.40;;
974;SDS011;6115;49.296;10.602;2023-08-17T11:14:57;5.37;;;4.87;;
974;SDS011;6115;49.296;10.602;2023-08-17T11:19:59;4.93;;;4.53;;
974;SDS011;6115;49.296;10.602;2023-08-17T11:24:59;5.60;;;5.00;;
974;SDS011;6115;49.296;10.602;2023-08-17T11:30:00;6.10;;;5.60;;
974;SDS011;6115;49.296;10.602;2023-08-17T11:35:01;5.57;;;5.07;;
974;SDS011;6115;49.296;10.602;2023-08-17T11:40:02;5.10;;;4.70;;
974;SDS011;6115;49.296;10.602;2023-08-17T11:45:04;7.80;;;4.77;;
974;SDS011;6115;49.296;10.602;2023-08-17T11:50:06;5.97;;;4.30;;
974;SDS011;6115;49.296;10.602;2023-08-17T11:55:09;5.20;;;4.70;;
974;SDS011;6115;49.296;10.602;2023-08-17T12:00:10;4.30;;;3.90;;
974;SDS011;6115;49.296;10.602;2023-08-17T12:05:24;4.70;;;4.20;;
974;SDS011;6115;49.296;10.602;2023-08-17T12:10:28;4.83;;;4.43;;
974;SDS011;6115;49.296;10.602;2023-08-17T12:15:31;6.07;;;4.10;;
974;SDS011;6115;49.296;10.602;2023-08-17T12:20:33;5.37;;;4.50;;
974;SDS011;6115;49.296;10.602;2023-08-17T12:25:36;5.17;;;4.77;;
974;SDS011;6115;49.296;10.602;2023-08-17T12:30:37;5.33;;;4.00;;
974;SDS011;6115;49.296;10.602;2023-08-17T12:35:38;4.77;;;4.37;;
974;SDS011;6115;49.296;10.602;2023-08-17T12:40:38;4.70;;;4.30;;
974;SDS011;6115;49.296;10.602;2023-08-17T12:45:39;5.70;;;4.70;;
974;SDS011;6115;49.296;10.602;2023-08-17T12:50:39;4.00;;;3.70;;
974;SDS011;6115;49.296;10.602;2023-08-17T12:55:40;4.70;;;4.27;;
974;SDS011;6115;49.296;10.602;2023-08-17T13:00:40;4.90;;;4.50;;
974;SDS011;6115;49.296;10.602;2023-08-17T13:05:41;6.63;;;4.30;;
974;SDS011;6115;49.296;10.602;2023-08-17T13:10:41;8.93;;;5.00;;
974;SDS011;6115;49.296;10.602;2023-08-17T13:15:42;6.57;;;4.13;;
974;SDS011;6115;49.296;10.602;2023-08-17T13:20:43;4.70;;;4.17;;
974;SDS011;6115;49.296;10.602;2023-08-17T13:25:43;4.80;;;4.40;;
974;SDS011;6115;49.296;10.602;2023-08-17T13:30:44;4.20;;;3.90;;
974;SDS011;6115;49.296;10.602;2023-08-17T13:35:45;4.50;;;4.10;;
974;SDS011;6115;49.296;10.602;2023-08-17T13:40:45;4.20;;;3.60;;
974;SDS011;6115;49.296;10.602;2023-08-17T13:45:46;4.70;;;4.30;;
974;SDS011;6115;49.296;10.602;2023-08-17T13:50:46;5.60;;;5.10;;
974;SDS011;6115;49.296;10.602;2023-08-17T13:55:47;6.60;;;4.43;;
974;SDS011;6115;49.296;10.602;2023-08-17T14:00:47;5.07;;;4.67;;
974;SDS011;6115;49.296;10.602;2023-08-17T14:05:48;5.23;;;4.83;;
974;SDS011;6115;49.296;10.602;2023-08-17T14:10:49;6.00;;;4.80;;
974;SDS011;6115;49.296;10.602;2023-08-17T14:15:50;6.43;;;4.40;;
974;SDS011;6115;49.296;10.602;2023-08-17T14:20:51;4.00;;;3.70;;
974;SDS011;6115;49.296;10.602;2023-08-17T14:25:51;4.30;;;3.80;;
974;SDS011;6115;49.296;10.602;2023-08-17T14:30:52;4.23;;;3.83;;
974;SDS011;6115;49.296;10.602;2023-08-17T14:35:53;4.37;;;3.97;;
974;SDS011;6115;49.296;10.602;2023-08-17T14:40:53;7.20;;;4.13;;
974;SDS011;6115;49.296;10.602;2023-08-17T14:45:54;5.17;;;4.60;;
974;SDS011;6115;49.296;10.602;2023-08-17T14:50:55;4.67;;;4.27;;
974;SDS011;6115;49.296;10.602;2023-08-17T14:55:55;7.37;;;4.40;;
974;SDS011;6115;49.296;10.602;2023-08-17T15:00:56;7.90;;;5.10;;
974;SDS011;6115;49.296;10.602;2023-08-17T15:05:56;5.17;;;4.57;;
974;SDS011;6115;49.296;10.602;2023-08-17T15:10:57;3.90;;;3.50;;
974;SDS011;6115;49.296;10.602;2023-08-17T15:16:01;4.00;;;3.50;;
974;SDS011;6115;49.296;10.602;2023-08-17T15:21:02;7.50;;;2.30;;
974;SDS011;6115;49.296;10.602;2023-08-17T15:26:03;3.00;;;2.37;;
974;SDS011;6115;49.296;10.602;2023-08-17T15:31:03;1.30;;;0.93;;
974;SDS011;6115;49.296;10.602;2023-08-17T15:36:05;0.70;;;0.30;;
974;SDS011;6115;49.296;10.602;2023-08-17T15:41:06;0.80;;;0.70;;
974;SDS011;6115;49.296;10.602;2023-08-17T15:46:06;0.70;;;0.40;;
974;SDS011;6115;49.296;10.602;2023-08-17T15:51:07;0.70;;;0.30;;
974;SDS011;6115;49.296;10.602;2023-08-17T15:56:08;0.70;;;0.40;;
974;SDS011;6115;49.296;10.602;2023-08-17T16:01:09;0.80;;;0.60;;
974;SDS011;6115;49.296;10.602;2023-08-17T16:06:09;0.80;;;0.50;;
974;SDS011;6115;49.296;10.602;2023-08-17T16:11:10;0.70;;;0.50;;
974;SDS011;6115;49.296;10.602;2023-08-17T16:16:11;0.70;;;0.30;;
974;SDS011;6115;49.296;10.602;2023-08-17T16:21:12;0.70;;;0.30;;
974;SDS011;6115;49.296;10.602;2023-08-17T16:26:12;0.70;;;0.40;;
974;SDS011;6115;49.296;10.602;2023-08-17T16:31:13;0.70;;;0.40;;
974;SDS011;6115;49.296;10.602;2023-08-17T16:36:13;0.70;;;0.40;;
974;SDS011;6115;49.296;10.602;2023-08-17T16:41:14;0.70;;;0.40;;
974;SDS011;6115;49.296;10.602;2023-08-17T16:46:14;0.70;;;0.30;;
974;SDS011;6115;49.296;10.602;2023-08-17T16:51:15;0.80;;;0.53;;
974;SDS011;6115;49.296;10.602;2023-08-17T16:56:16;0.70;;;0.40;;
974;SDS011;6115;49.296;10.602;2023-08-17T17:01:16;0.70;;;0.40;;
974;SDS011;6115;49.296;10.602;2023-08-17T17:06:18;0.70;;;0.30;;
974;SDS011;6115;49.296;10.602;2023-08-17T17:11:19;0.70;;;0.30;;
974;SDS011;6115;49.296;10.602;2023-08-17T17:16:19;0.70;;;0.30;;
974;SDS011;6115;49.296;10.602;2023-08-17T17:21:20;1.00;;;0.83;;
974;SDS011;6115;49.296;10.602;2023-08-17T17:26:21;0.70;;;0.30;;
974;SDS011;6115;49.296;10.602;2023-08-17T17:31:22;0.90;;;0.73;;
974;SDS011;6115;49.296;10.602;2023-08-17T17:36:22;0.70;;;0.30;;
974;SDS011;6115;49.296;10.602;2023-08-17T17:41:23;0.80;;;0.57;;
974;SDS011;6115;49.296;10.602;2023-08-17T17:46:23;0.70;;;0.43;;
974;SDS011;6115;49.296;10.602;2023-08-17T17:51:24;0.70;;;0.40;;
974;SDS011;6115;49.296;10.602;2023-08-17T17:56:41;0.70;;;0.40;;
974;SDS011;6115;49.296;10.602;2023-08-17T18:01:42;0.70;;;0.30;;
974;SDS011;6115;49.296;10.602;2023-08-17T18:06:43;0.70;;;0.30;;
974;SDS011;6115;49.296;10.602;2023-08-17T18:11:43;0.70;;;0.30;;
974;SDS011;6115;49.296;10.602;2023-08-17T18:16:44;0.70;;;0.40;;
974;SDS011;6115;49.296;10.602;2023-08-17T18:21:44;0.70;;;0.40;;
974;SDS011;6115;49.296;10.602;2023-08-17T18:26:45;0.70;;;0.30;;
974;SDS011;6115;49.296;10.602;2023-08-17T18:31:45;0.70;;;0.30;;
974;SDS011;6115;49.296;10.602;2023-08-17T18:36:46;1.00;;;0.60;;
974;SDS011;6115;49.296;10.602;2023-08-17T18:41:47;0.70;;;0.40;;
974;SDS011;6115;49.296;10.602;2023-08-17T18:46:47;0.70;;;0.30;;
974;SDS011;6115;49.296;10.602;2023-08-17T18:51:48;0.70;;;0.40;;
974;SDS011;6115;49.296;10.602;2023-08-17T18:56:48;0.80;;;0.60;;
974;SDS011;6115;49.296;10.602;2023-08-17T19:01:49;1.53;;;1.17;;
974;SDS011;6115;49.296;10.602;2023-08-17T19:06:49;0.70;;;0.30;;
974;SDS011;6115;49.296;10.602;2023-08-17T19:11:50;0.70;;;0.30;;
974;SDS011;6115;49.296;10.602;2023-08-17T19:16:50;0.70;;;0.50;;
974;SDS011;6115;49.296;10.602;2023-08-17T19:21:51;0.70;;;0.30;;
974;SDS011;6115;49.296;10.602;2023-08-17T19:26:51;0.70;;;0.47;;
974;SDS011;6115;49.296;10.602;2023-08-17T19:31:52;0.70;;;0.30;;
974;SDS011;6115;49.296;10.602;2023-08-17T19:36:52;0.70;;;0.30;;
974;SDS011;6115;49.296;10.602;2023-08-17T19:41:53;0.70;;;0.40;;
974;SDS011;6115;49.296;10.602;2023-08-17T19:46:54;0.70;;;0.40;;
974;SDS011;6115;49.296;10.602;2023-08-17T19:51:55;1.73;;;1.23;;
974;SDS011;6115;49.296;10.602;2023-08-17T19:56:59;0.70;;;0.30;;
974;SDS011;6115;49.296;10.602;2023-08-17T20:02:00;1.00;;;0.60;;
974;SDS011;6115;49.296;10.602;2023-08-17T20:07:00;0.70;;;0.30;;
974;SDS011;6115;49.296;10.602;2023-08-17T20:12:03;0.70;;;0.40;;
974;SDS011;6115;49.296;10.602;2023-08-17T20:17:05;0.70;;;0.40;;
974;SDS011;6115;49.296;10.602;2023-08-17T20:22:06;0.70;;;0.30;;
974;SDS011;6115;49.296;10.602;2023-08-17T20:27:07;0.70;;;0.30;;
974;SDS011;6115;49.296;10.602;2023-08-17T20:32:08;0.70;;;0.40;;
974;SDS011;6115;49.296;10.602;2023-08-17T20:37:09;0.70;;;0.30;;
974;SDS011;6115;49.296;10.602;2023-08-17T20:42:09;0.70;;;0.40;;
974;SDS011;6115;49.296;10.602;2023-08-17T20:47:12;0.73;;;0.47;;
974;SDS011;6115;49.296;10.602;2023-08-17T20:52:14;0.70;;;0.40;;
974;SDS011;6115;49.296;10.602;2023-08-17T20:57:15;0.70;;;0.40;;
974;SDS011;6115;49.296;10.602;2023-08-17T21:02:15;0.70;;;0.30;;
974;SDS011;6115;49.296;10.602;2023-08-17T21:07:16;9.73;;;1.03;;
974;SDS011;6115;49.296;10.602;2023-08-17T21:12:16;0.70;;;0.33;;
974;SDS011;6115;49.296;10.602;2023-08-17T21:17:17;0.70;;;0.30;;
974;SDS011;6115;49.296;10.602;2023-08-17T21:22:18;0.70;;;0.40;;
974;SDS011;6115;49.296;10.602;2023-08-17T21:27:18;0.70;;;0.70;;
974;SDS011;6115;49.296;10.602;2023-08-17T21:32:19;0.70;;;0.30;;
974;SDS011;6115;49.296;10.602;2023-08-17T21:37:23;2.60;;;1.37;;
974;SDS011;6115;49.296;10.602;2023-08-17T21:42:25;0.80;;;0.40;;
974;SDS011;6115;49.296;10.602;2023-08-17T21:47:25;0.70;;;0.30;;
974;SDS011;6115;49.296;10.602;2023-08-17T21:52:26;0.70;;;0.47;;
974;SDS011;6115;49.296;10.602;2023-08-17T21:57:27;0.70;;;0.40;;
974;SDS011;6115;49.296;10.602;2023-08-17T22:02:27;0.70;;;0.30;;
974;SDS011;6115;49.296;10.602;2023-08-17T22:07:28;0.70;;;0.30;;
974;SDS011;6115;49.296;10.602;2023-08-17T22:12:28;0.70;;;0.30;;
974;SDS011;6115;49.296;10.602;2023-08-17T22:17:29;0.70;;;0.30;;
974;SDS011;6115;49.296;10.602;2023-08-17T22:22:29;1.57;;;1.33;;
974;SDS011;6115;49.296;10.602;2023-08-17T22:27:30;0.70;;;0.40;;
974;SDS011;6115;49.296;10.602;2023-08-17T22:32:31;0.70;;;0.40;;
974;SDS011;6115;49.296;10.602;2023-08-17T22:37:31;0.80;;;0.50;;
974;SDS011;6115;49.296;10.602;2023-08-17T22:42:32;0.70;;;0.40;;
974;SDS011;6115;49.296;10.602;2023-08-17T22:47:32;0.70;;;0.40;;
974;SDS011;6115;49.296;10.602;2023-08-17T22:52:33;0.70;;;0.30;;
974;SDS011;6115;49.296;10.602;2023-08-17T22:57:33;0.70;;;0.30;;
974;SDS011;6115;49.296;10.602;2023-08-17T23:02:34;0.80;;;0.80;;
974;SDS011;6115;49.296;10.602;2023-08-17T23:07:34;0.70;;;0.30;;
974;SDS011;6115;49.296;10.602;2023-08-17T23:12:35;0.80;;;0.70;;
974;SDS011;6115;49.296;10.602;2023-08-17T23:17:36;0.70;;;0.30;;
974;SDS011;6115;49.296;10.602;2023-08-17T23:22:36;0.70;;;0.40;;
974;SDS011;6115;49.296;10.602;2023-08-17T23:27:37;0.70;;;0.40;;
974;SDS011;6115;49.296;10.602;2023-08-17T23:32:38;0.70;;;0.30;;
974;SDS011;6115;49.296;10.602;2023-08-17T23:37:39;0.70;;;0.30;;
974;SDS011;6115;49.296;10.602;2023-08-17T23:42:40;0.70;;;0.30;;
974;SDS011;6115;49.296;10.602;2023-08-17T23:47:41;0.80;;;0.60;;
974;SDS011;6115;49.296;10.602;2023-08-17T23:52:43;0.70;;;0.40;;
974;SDS011;6115;49.296;10.602;2023-08-17T23:57:43;0.70;;;0.30;;
